Time;durP1;ratioP1;P1;durP2;ratioP2;P2;SDS_P1;SDS_P2;PMS_P1;PMS_P2;Temp;Humidity;BMP_temperature;BMP_pressure;BME280_temperature;BME280_humidity;BME280_pressure;Samples;Min_cycle;Max_cycle;Signal;HPM_P1;HPM_P2
2022/09/13 00:01:40;;;;;;;;;;;;;;;7.43;85.10;100310.98;89432;1260;82113;-59
2022/09/13 00:03:47;;;;;;;;;;;;;;;7.35;85.20;100313.69;89462;1260;98629;-59
2022/09/13 00:05:54;;;;;;;;;;;;;;;7.33;85.14;100317.13;89448;1260;87472;-59
2022/09/13 00:08:02;;;;;;;;;;;;;;;7.32;85.24;100319.75;89453;1260;94890;-58
2022/09/13 00:10:12;;;;;;;;;;;;;;;7.31;85.25;100316.58;89467;1266;80965;-59
2022/09/13 00:12:19;;;;;;;;;;;;;;;7.26;84.97;100315.61;89475;1260;81585;-60
2022/09/13 00:14:28;;;;;;;;;;;;;;;7.22;85.05;100317.81;89422;1261;98988;-58
2022/09/13 00:16:36;;;;;;;;;;;;;;;7.26;85.19;100318.84;89454;1260;88629;-58
2022/09/13 00:18:43;;;;;;;;;;;;;;;7.28;85.23;100318.36;89455;1260;94971;-59
2022/09/13 00:20:50;;;;;;;;;;;;;;;7.27;85.39;100314.04;89499;1261;83590;-59
2022/09/13 00:23:00;;;;;;;;;;;;;;;7.18;85.43;100314.35;89517;1261;81591;-60
2022/09/13 00:25:12;;;;;;;;;;;;;;;7.10;85.33;100314.13;89490;1260;98203;-60
2022/09/13 00:27:21;;;;;;;;;;;;;;;7.10;85.34;100312.72;89493;1261;87211;-60
2022/09/13 00:29:31;;;;;;;;;;;;;;;7.09;85.37;100309.95;89510;1261;95614;-59
2022/09/13 00:31:38;;;;;;;;;;;;;;;7.08;85.40;100307.75;89441;1266;81363;-57
2022/09/13 00:33:46;;;;;;;;;;;;;;;7.06;85.25;100309.62;89438;1260;82542;-58
2022/09/13 00:35:53;;;;;;;;;;;;;;;7.06;85.40;100313.50;89452;1260;99130;-58
2022/09/13 00:38:02;;;;;;;;;;;;;;;7.10;85.39;100312.75;89454;1260;89266;-58
2022/09/13 00:40:15;;;;;;;;;;;;;;;7.12;85.48;100313.89;89125;1263;94305;-58
2022/09/13 00:42:26;;;;;;;;;;;;;;;7.10;85.33;100312.52;89437;1261;82186;-57
2022/09/13 00:44:56;;;;;;;;;;;;;;;7.02;85.29;100311.61;89484;1261;82584;-60
2022/09/13 00:47:03;;;;;;;;;;;;;;;6.96;85.21;100310.74;89414;1260;98386;-59
2022/09/13 00:49:20;;;;;;;;;;;;;;;6.91;85.23;100308.97;89436;1260;88921;-59
2022/09/13 00:51:30;;;;;;;;;;;;;;;6.86;85.28;100306.95;89440;1261;95301;-60
2022/09/13 00:53:44;;;;;;;;;;;;;;;6.81;85.33;100305.73;89444;1261;82371;-59
2022/09/13 00:55:53;;;;;;;;;;;;;;;6.77;85.20;100308.86;89465;1261;80854;-58
2022/09/13 00:58:05;;;;;;;;;;;;;;;6.79;85.49;100311.38;89488;1261;98095;-57
2022/09/13 01:00:18;;;;;;;;;;;;;;;6.77;85.38;100315.30;89163;1264;89845;-59
2022/09/13 01:02:26;;;;;;;;;;;;;;;6.76;85.28;100312.17;89506;1260;94137;-59
2022/09/13 01:04:36;;;;;;;;;;;;;;;6.71;85.27;100316.04;89489;1260;81906;-59
2022/09/13 01:06:44;;;;;;;;;;;;;;;6.64;85.44;100313.01;89535;1260;82120;-60
2022/09/13 01:08:57;;;;;;;;;;;;;;;6.62;85.47;100313.79;89515;1260;98841;-58
2022/09/13 01:11:10;;;;;;;;;;;;;;;6.61;85.64;100311.70;89484;1261;89301;-58
2022/09/13 01:13:20;;;;;;;;;;;;;;;6.64;85.66;100313.02;89470;1260;94852;-57
2022/09/13 01:15:27;;;;;;;;;;;;;;;6.66;85.83;100309.89;89476;1260;82649;-58
2022/09/13 01:17:35;;;;;;;;;;;;;;;6.67;85.91;100306.44;89487;1260;81503;-58
2022/09/13 01:19:42;;;;;;;;;;;;;;;6.67;86.00;100303.21;89448;1260;98883;-58
2022/09/13 01:22:20;;;;;;;;;;;;;;;6.68;86.02;100303.45;89479;1260;87689;-59
2022/09/13 01:24:46;;;;;;;;;;;;;;;6.73;86.17;100302.34;89490;1261;93852;-58
2022/09/13 01:27:16;;;;;;;;;;;;;;;6.82;86.20;100301.74;89134;1260;81633;-58
2022/09/13 01:29:49;;;;;;;;;;;;;;;6.81;86.22;100304.17;89483;1260;82021;-58
2022/09/13 01:32:00;;;;;;;;;;;;;;;6.82;86.20;100303.70;89326;1260;97227;-58
2022/09/13 01:34:29;;;;;;;;;;;;;;;6.77;86.28;100299.56;89481;1260;86367;-59
2022/09/13 01:36:54;;;;;;;;;;;;;;;6.79;86.29;100296.82;89474;1260;95619;-60
2022/09/13 01:39:05;;;;;;;;;;;;;;;6.75;86.28;100295.09;89497;1261;81977;-60
2022/09/13 01:41:23;;;;;;;;;;;;;;;6.74;86.23;100297.61;89513;1260;82545;-60
2022/09/13 01:43:40;;;;;;;;;;;;;;;6.71;86.48;100293.76;89477;1260;97132;-59
2022/09/13 01:45:54;;;;;;;;;;;;;;;6.72;86.46;100296.02;89528;1260;88736;-59
2022/09/13 01:48:09;;;;;;;;;;;;;;;6.70;86.59;100293.79;89536;1260;93646;-59
2022/09/13 01:50:23;;;;;;;;;;;;;;;6.70;86.74;100295.93;89505;1261;80697;-58
2022/09/13 01:52:35;;;;;;;;;;;;;;;6.67;86.77;100289.23;89553;1260;83156;-57
2022/09/13 01:54:48;;;;;;;;;;;;;;;6.64;86.72;100287.48;89532;1260;96936;-59
2022/09/13 01:57:01;;;;;;;;;;;;;;;6.58;86.96;100287.16;89495;1260;87119;-59
2022/09/13 01:59:15;;;;;;;;;;;;;;;6.57;86.87;100282.83;89446;1260;95295;-59
2022/09/13 02:01:25;;;;;;;;;;;;;;;6.57;86.94;100285.89;89441;1260;82085;-60
2022/09/13 02:03:39;;;;;;;;;;;;;;;6.56;87.00;100284.76;89522;1260;80487;-59
2022/09/13 02:05:52;;;;;;;;;;;;;;;6.53;87.16;100288.58;89446;1260;98144;-57
2022/09/13 02:08:01;;;;;;;;;;;;;;;6.49;87.00;100283.97;89477;1260;88793;-59
2022/09/13 02:10:13;;;;;;;;;;;;;;;6.48;87.17;100279.48;89476;1260;95189;-60
2022/09/13 02:12:21;;;;;;;;;;;;;;;6.49;87.31;100278.88;89467;1260;80049;-59
2022/09/13 02:14:32;;;;;;;;;;;;;;;6.51;87.43;100277.33;89470;1260;82221;-60
2022/09/13 02:16:43;;;;;;;;;;;;;;;6.54;87.50;100271.83;89473;1260;97791;-59
2022/09/13 02:18:57;;;;;;;;;;;;;;;6.53;87.34;100275.52;89500;1260;89077;-58
2022/09/13 02:21:10;;;;;;;;;;;;;;;6.51;87.30;100274.62;89489;1260;94897;-59
2022/09/13 02:23:23;;;;;;;;;;;;;;;6.42;87.18;100273.67;89456;1260;81785;-59
2022/09/13 02:25:33;;;;;;;;;;;;;;;6.34;87.29;100269.70;89484;1260;82625;-59
2022/09/13 02:27:41;;;;;;;;;;;;;;;6.32;87.25;100266.67;89505;1260;98951;-60
2022/09/13 02:29:51;;;;;;;;;;;;;;;6.31;87.27;100264.88;89530;1260;88749;-59
2022/09/13 02:32:01;;;;;;;;;;;;;;;6.29;87.13;100266.17;89502;1260;94423;-58
2022/09/13 02:34:15;;;;;;;;;;;;;;;6.30;87.16;100266.27;89543;1260;82723;-58
2022/09/13 02:36:26;;;;;;;;;;;;;;;6.26;86.99;100262.38;89544;1260;81647;-59
2022/09/13 02:38:37;;;;;;;;;;;;;;;6.25;87.31;100261.60;89463;1260;99083;-59
2022/09/13 02:40:57;;;;;;;;;;;;;;;6.26;87.38;100259.72;89506;1260;89227;-58
2022/09/13 02:43:09;;;;;;;;;;;;;;;6.26;87.39;100259.90;89520;1261;94053;-58
2022/09/13 02:45:16;;;;;;;;;;;;;;;6.28;87.49;100258.77;89529;1260;82822;-59
2022/09/13 02:47:35;;;;;;;;;;;;;;;6.29;87.41;100261.14;89521;1260;82089;-59
2022/09/13 02:49:52;;;;;;;;;;;;;;;6.35;87.48;100257.52;89542;1260;96788;-57
2022/09/13 02:52:07;;;;;;;;;;;;;;;6.35;87.49;100257.30;89512;1260;89344;-58
2022/09/13 02:54:23;;;;;;;;;;;;;;;6.32;87.59;100256.59;89490;1260;95268;-59
2022/09/13 02:56:36;;;;;;;;;;;;;;;6.32;87.70;100251.55;89466;1260;82497;-59
2022/09/13 02:58:47;;;;;;;;;;;;;;;6.33;87.70;100246.77;89499;1260;81958;-59
2022/09/13 03:00:54;;;;;;;;;;;;;;;6.34;87.64;100247.98;89485;1260;98316;-59
2022/09/13 03:03:05;;;;;;;;;;;;;;;6.35;87.91;100245.13;89502;1260;88508;-59
2022/09/13 03:05:16;;;;;;;;;;;;;;;6.44;88.06;100246.34;89491;1260;95942;-58
2022/09/13 03:07:26;;;;;;;;;;;;;;;6.48;87.88;100244.46;89441;1261;80373;-57
2022/09/13 03:09:34;;;;;;;;;;;;;;;6.43;87.84;100244.29;89534;1260;82385;-60
2022/09/13 03:12:02;;;;;;;;;;;;;;;6.38;87.81;100239.83;89485;1260;98709;-60
2022/09/13 03:14:23;;;;;;;;;;;;;;;6.33;87.93;100238.74;89485;1260;87841;-59
2022/09/13 03:16:45;;;;;;;;;;;;;;;6.33;88.21;100236.20;89492;1260;94931;-59
2022/09/13 03:19:01;;;;;;;;;;;;;;;6.36;88.21;100234.43;89556;1260;80765;-59
2022/09/13 03:21:16;;;;;;;;;;;;;;;6.43;88.33;100236.89;89582;1260;82702;-60
2022/09/13 03:23:36;;;;;;;;;;;;;;;6.45;88.35;100235.24;89571;1260;99231;-58
2022/09/13 03:25:59;;;;;;;;;;;;;;;6.45;88.29;100229.14;89551;1260;88129;-59
2022/09/13 03:28:14;;;;;;;;;;;;;;;6.51;88.34;100227.46;89527;1260;95268;-60
2022/09/13 03:30:21;;;;;;;;;;;;;;;6.53;88.51;100227.73;89548;1260;80272;-58
2022/09/13 03:32:36;;;;;;;;;;;;;;;6.53;88.29;100225.77;89601;1260;81643;-58
2022/09/13 03:34:49;;;;;;;;;;;;;;;6.56;88.37;100224.20;89532;1260;97998;-58
2022/09/13 03:36:59;;;;;;;;;;;;;;;6.56;88.50;100224.05;89526;1260;87841;-58
2022/09/13 03:39:13;;;;;;;;;;;;;;;6.60;88.50;100224.21;89480;1260;95465;-58
2022/09/13 03:41:23;;;;;;;;;;;;;;;6.55;88.48;100217.55;89523;1260;80487;-58
2022/09/13 03:43:34;;;;;;;;;;;;;;;6.53;88.45;100225.75;89510;1260;81778;-59
2022/09/13 03:45:46;;;;;;;;;;;;;;;6.51;88.48;100219.44;89508;1260;99054;-59
2022/09/13 03:47:53;;;;;;;;;;;;;;;6.53;88.53;100216.45;89507;1260;87263;-59
2022/09/13 03:50:02;;;;;;;;;;;;;;;6.50;88.44;100214.65;89476;1260;95334;-59
2022/09/13 03:52:11;;;;;;;;;;;;;;;6.51;88.48;100215.52;89501;1260;82403;-60
2022/09/13 03:54:22;;;;;;;;;;;;;;;6.52;88.55;100214.78;89470;1260;82368;-60
2022/09/13 03:56:29;;;;;;;;;;;;;;;6.53;88.54;100214.52;89533;1261;99442;-60
2022/09/13 03:58:36;;;;;;;;;;;;;;;6.52;88.46;100211.77;89529;1260;86697;-59
2022/09/13 04:00:43;;;;;;;;;;;;;;;6.47;88.47;100210.69;89153;1263;94825;-60
2022/09/13 04:02:51;;;;;;;;;;;;;;;6.42;88.29;100208.23;89551;1260;81266;-59
2022/09/13 04:04:58;;;;;;;;;;;;;;;6.39;88.26;100205.02;89575;1260;82348;-60
2022/09/13 04:07:11;;;;;;;;;;;;;;;6.36;88.02;100204.61;89572;1260;98338;-59
2022/09/13 04:09:21;;;;;;;;;;;;;;;6.30;88.05;100207.63;89541;1260;87331;-59
2022/09/13 04:11:31;;;;;;;;;;;;;;;6.18;87.78;100200.52;89550;1260;92300;-58
2022/09/13 04:13:39;;;;;;;;;;;;;;;6.02;87.92;100201.91;89537;1260;82554;-59
2022/09/13 04:15:50;;;;;;;;;;;;;;;5.99;87.93;100207.29;89514;1260;81774;-60
2022/09/13 04:18:00;;;;;;;;;;;;;;;5.98;87.77;100211.34;89504;1260;99176;-59
2022/09/13 04:20:12;;;;;;;;;;;;;;;5.95;87.67;100208.95;89566;1260;88161;-60
2022/09/13 04:22:21;;;;;;;;;;;;;;;5.87;87.64;100208.56;89148;1263;93538;-59
2022/09/13 04:24:32;;;;;;;;;;;;;;;5.84;87.88;100210.84;89551;1260;82328;-59
2022/09/13 04:26:42;;;;;;;;;;;;;;;5.78;87.82;100214.97;89536;1260;82735;-59
2022/09/13 04:28:54;;;;;;;;;;;;;;;5.78;87.87;100208.80;89515;1260;98930;-59
2022/09/13 04:31:02;;;;;;;;;;;;;;;5.76;87.74;100206.59;89507;1260;88973;-58
2022/09/13 04:33:16;;;;;;;;;;;;;;;5.75;87.82;100208.57;89520;1260;95271;-57
2022/09/13 04:35:27;;;;;;;;;;;;;;;5.79;87.75;100212.23;89503;1260;82002;-60
2022/09/13 04:37:35;;;;;;;;;;;;;;;5.81;87.67;100211.50;89523;1260;82942;-59
2022/09/13 04:39:43;;;;;;;;;;;;;;;5.83;87.70;100213.05;89525;1260;98933;-59
2022/09/13 04:41:53;;;;;;;;;;;;;;;5.88;87.84;100212.77;89542;1260;87879;-57
2022/09/13 04:44:01;;;;;;;;;;;;;;;5.94;87.79;100211.13;89191;1260;94107;-59
2022/09/13 04:46:08;;;;;;;;;;;;;;;5.98;87.91;100211.67;89557;1260;80491;-59
2022/09/13 04:48:16;;;;;;;;;;;;;;;6.04;87.99;100208.86;89574;1260;80997;-59
2022/09/13 04:50:28;;;;;;;;;;;;;;;6.11;87.98;100210.61;89590;1260;97482;-58
2022/09/13 04:52:36;;;;;;;;;;;;;;;6.24;88.07;100214.30;89598;1260;88840;-58
2022/09/13 04:54:44;;;;;;;;;;;;;;;6.34;88.18;100208.61;89195;1263;94876;-59
2022/09/13 04:56:51;;;;;;;;;;;;;;;6.44;88.23;100210.48;89170;1262;82339;-59
2022/09/13 04:59:00;;;;;;;;;;;;;;;6.56;88.32;100209.17;89601;1260;80201;-59
2022/09/13 05:01:08;;;;;;;;;;;;;;;6.70;88.43;100207.70;89528;1260;98046;-59
2022/09/13 05:03:18;;;;;;;;;;;;;;;6.83;88.33;100206.39;89537;1260;87513;-59
2022/09/13 05:05:27;;;;;;;;;;;;;;;6.93;88.41;100204.87;89529;1260;93053;-59
2022/09/13 05:07:38;;;;;;;;;;;;;;;7.13;88.53;100204.40;89527;1260;81155;-59
2022/09/13 05:09:47;;;;;;;;;;;;;;;7.43;88.67;100205.60;89527;1260;81008;-57
2022/09/13 05:11:54;;;;;;;;;;;;;;;8.52;88.96;100197.09;89517;1260;98672;-57
2022/09/13 05:14:05;;;;;;;;;;;;;;;10.12;88.00;100188.52;89546;1260;88333;-58
2022/09/13 05:16:15;;;;;;;;;;;;;;;11.69;86.55;100185.36;89523;1260;94318;-58
2022/09/13 05:18:29;;;;;;;;;;;;;;;12.91;84.94;100182.07;89488;1260;79953;-58
2022/09/13 05:20:36;;;;;;;;;;;;;;;13.54;83.40;100177.03;89533;1260;82271;-58
2022/09/13 05:22:48;;;;;;;;;;;;;;;14.26;82.21;100177.80;89537;1260;98408;-58
2022/09/13 05:25:01;;;;;;;;;;;;;;;14.45;80.36;100180.45;89592;1260;87897;-57
2022/09/13 05:27:14;;;;;;;;;;;;;;;13.77;79.73;100184.31;89542;1260;94351;-57
2022/09/13 05:29:25;;;;;;;;;;;;;;;13.63;79.33;100188.34;89580;1260;79959;-58
2022/09/13 05:31:36;;;;;;;;;;;;;;;13.11;79.18;100189.19;89536;1260;82501;-58
2022/09/13 05:33:43;;;;;;;;;;;;;;;12.31;79.74;100194.69;89543;1260;98165;-58
2022/09/13 05:35:52;;;;;;;;;;;;;;;11.84;79.95;100193.89;89582;1260;88208;-58
2022/09/13 05:38:00;;;;;;;;;;;;;;;11.40;80.51;100191.98;89552;1260;95490;-59
2022/09/13 05:40:12;;;;;;;;;;;;;;;11.19;80.54;100191.79;89569;1260;80121;-59
2022/09/13 05:42:20;;;;;;;;;;;;;;;11.07;80.53;100187.25;89614;1260;81384;-59
2022/09/13 05:44:31;;;;;;;;;;;;;;;10.99;80.58;100187.33;89597;1260;96672;-58
2022/09/13 05:46:46;;;;;;;;;;;;;;;11.13;80.84;100185.92;89602;1260;89917;-59
2022/09/13 05:49:02;;;;;;;;;;;;;;;12.31;81.61;100186.63;89530;1260;93943;-60
2022/09/13 05:51:16;;;;;;;;;;;;;;;14.49;81.62;100171.96;89551;1260;80761;-61
2022/09/13 05:53:26;;;;;;;;;;;;;;;16.48;80.03;100169.95;89617;1260;81424;-61
2022/09/13 05:55:35;;;;;;;;;;;;;;;18.19;79.51;100160.49;89356;1262;96953;-59
2022/09/13 05:57:45;;;;;;;;;;;;;;;19.64;78.59;100157.14;89571;1260;86324;-59
2022/09/13 05:59:57;;;;;;;;;;;;;;;20.70;76.59;100152.73;89555;1260;95080;-61
2022/09/13 06:02:09;;;;;;;;;;;;;;;21.44;75.11;100147.98;89544;1260;79912;-59
2022/09/13 06:04:17;;;;;;;;;;;;;;;22.08;74.43;100144.21;89550;1260;83237;-63
2022/09/13 06:06:28;;;;;;;;;;;;;;;22.32;72.77;100142.52;89522;1260;98166;-58
2022/09/13 06:08:37;;;;;;;;;;;;;;;23.00;71.71;100136.18;89538;1260;87832;-59
2022/09/13 06:10:44;;;;;;;;;;;;;;;23.39;70.18;100135.64;89508;1260;93871;-59
2022/09/13 06:13:01;;;;;;;;;;;;;;;22.87;69.33;100138.05;89539;1260;80790;-59
2022/09/13 06:15:14;;;;;;;;;;;;;;;21.57;69.14;100139.02;89515;1260;81953;-59
2022/09/13 06:17:21;;;;;;;;;;;;;;;20.24;69.16;100143.00;89553;1260;98977;-59
2022/09/13 06:19:34;;;;;;;;;;;;;;;19.36;69.07;100141.69;89550;1260;86224;-59
2022/09/13 06:21:42;;;;;;;;;;;;;;;19.01;69.16;100140.39;89514;1260;94153;-59
2022/09/13 06:23:53;;;;;;;;;;;;;;;18.95;68.69;100148.69;89555;1260;80061;-59
2022/09/13 06:26:05;;;;;;;;;;;;;;;18.42;68.32;100147.27;89555;1260;81026;-58
2022/09/13 06:28:15;;;;;;;;;;;;;;;17.79;68.55;100150.96;89575;1260;98872;-59
2022/09/13 06:30:24;;;;;;;;;;;;;;;17.23;68.72;100149.99;89598;1260;86682;-59
2022/09/13 06:32:32;;;;;;;;;;;;;;;16.84;69.35;100151.54;89602;1260;94672;-58
2022/09/13 06:34:44;;;;;;;;;;;;;;;16.38;69.80;100149.73;89553;1260;80175;-60
2022/09/13 06:36:51;;;;;;;;;;;;;;;16.08;70.11;100150.34;89564;1260;81636;-60
2022/09/13 06:39:00;;;;;;;;;;;;;;;15.88;70.40;100149.52;89577;1260;98356;-60
2022/09/13 06:41:13;;;;;;;;;;;;;;;15.74;70.71;100148.16;89518;1260;88868;-60
2022/09/13 06:43:23;;;;;;;;;;;;;;;15.69;71.12;100147.94;89543;1260;95770;-59
2022/09/13 06:45:36;;;;;;;;;;;;;;;15.69;71.53;100151.04;89537;1260;81021;-59
2022/09/13 06:47:44;;;;;;;;;;;;;;;15.66;71.97;100148.09;89524;1260;82623;-59
2022/09/13 06:49:52;;;;;;;;;;;;;;;15.65;72.21;100147.77;89547;1260;99108;-59
2022/09/13 06:52:02;;;;;;;;;;;;;;;15.87;72.21;100147.27;89510;1260;88646;-59
2022/09/13 06:54:09;;;;;;;;;;;;;;;16.22;72.35;100143.86;89538;1260;95949;-59
2022/09/13 06:56:18;;;;;;;;;;;;;;;16.33;72.16;100142.30;89136;1263;81061;-59
2022/09/13 06:58:34;;;;;;;;;;;;;;;16.31;72.35;100140.66;89571;1260;81551;-57
2022/09/13 07:00:47;;;;;;;;;;;;;;;16.41;72.92;100142.36;89545;1260;97530;-56
2022/09/13 07:02:55;;;;;;;;;;;;;;;16.94;72.84;100138.58;89557;1260;87660;-57
2022/09/13 07:05:03;;;;;;;;;;;;;;;17.42;71.94;100136.27;89541;1260;95024;-57
2022/09/13 07:07:13;;;;;;;;;;;;;;;17.42;71.45;100135.58;89139;1262;79311;-58
2022/09/13 07:09:22;;;;;;;;;;;;;;;17.42;71.39;100138.02;89530;1260;83006;-59
2022/09/13 07:11:34;;;;;;;;;;;;;;;17.39;71.28;100135.61;89549;1260;98729;-58
2022/09/13 07:13:47;;;;;;;;;;;;;;;17.34;71.16;100134.69;89571;1260;88580;-58
2022/09/13 07:15:56;;;;;;;;;;;;;;;17.24;71.18;100131.67;89556;1260;95100;-59
2022/09/13 07:18:03;;;;;;;;;;;;;;;16.99;71.54;100133.79;89563;1260;79659;-59
2022/09/13 07:20:12;;;;;;;;;;;;;;;16.91;71.68;100130.48;89574;1260;81019;-57
2022/09/13 07:22:25;;;;;;;;;;;;;;;16.99;71.85;100128.89;89576;1260;99462;-58
2022/09/13 07:24:32;;;;;;;;;;;;;;;16.79;72.09;100130.80;89549;1260;88943;-59
2022/09/13 07:26:40;;;;;;;;;;;;;;;16.83;72.35;100126.80;89510;1260;95018;-57
2022/09/13 07:28:49;;;;;;;;;;;;;;;17.19;72.58;100128.14;89572;1260;81597;-57
2022/09/13 07:30:58;;;;;;;;;;;;;;;17.78;72.21;100124.23;89520;1260;81958;-57
2022/09/13 07:33:06;;;;;;;;;;;;;;;18.48;71.25;100126.86;89504;1260;99221;-57
2022/09/13 07:35:15;;;;;;;;;;;;;;;18.97;70.86;100125.27;89520;1260;87534;-59
2022/09/13 07:37:24;;;;;;;;;;;;;;;19.72;69.87;100121.75;89498;1260;94460;-59
2022/09/13 07:39:32;;;;;;;;;;;;;;;20.03;68.82;100125.07;89470;1260;80191;-58
2022/09/13 07:41:39;;;;;;;;;;;;;;;20.04;68.28;100125.55;89484;1260;81355;-58
2022/09/13 07:43:47;;;;;;;;;;;;;;;20.29;68.47;100123.55;89488;1260;98390;-59
2022/09/13 07:46:03;;;;;;;;;;;;;;;20.95;69.43;100117.42;89528;1260;90094;-59
2022/09/13 07:48:10;;;;;;;;;;;;;;;22.31;67.97;100115.07;89516;1260;95353;-60
2022/09/13 07:50:21;;;;;;;;;;;;;;;23.63;66.67;100114.38;89544;1260;80568;-59
2022/09/13 07:52:29;;;;;;;;;;;;;;;24.81;64.95;100114.17;89553;1260;82422;-59
2022/09/13 07:54:44;;;;;;;;;;;;;;;25.71;63.82;100109.64;89528;1260;98751;-60
2022/09/13 07:56:51;;;;;;;;;;;;;;;26.38;61.98;100114.34;89544;1260;88602;-60
2022/09/13 07:58:59;;;;;;;;;;;;;;;26.85;61.12;100110.83;89548;1260;93853;-58
2022/09/13 08:01:10;;;;;;;;;;;;;;;27.52;59.32;100105.86;89566;1260;79311;-60
2022/09/13 08:03:22;;;;;;;;;;;;;;;28.07;57.72;100105.73;89596;1260;82337;-60
2022/09/13 08:05:31;;;;;;;;;;;;;;;28.06;56.67;100105.54;89533;1260;99007;-59
2022/09/13 08:07:40;;;;;;;;;;;;;;;28.02;56.02;100103.39;89556;1260;89035;-58
2022/09/13 08:09:51;;;;;;;;;;;;;;;28.06;55.01;100105.20;89515;1260;95230;-60
2022/09/13 08:12:02;;;;;;;;;;;;;;;28.30;53.80;100104.66;89529;1260;79072;-62
2022/09/13 08:14:11;;;;;;;;;;;;;;;28.28;52.93;100099.75;89571;1260;82813;-59
2022/09/13 08:16:21;;;;;;;;;;;;;;;28.22;51.46;100099.95;89531;1260;97577;-60
2022/09/13 08:18:28;;;;;;;;;;;;;;;28.26;51.20;100098.20;89585;1260;89835;-58
2022/09/13 08:20:39;;;;;;;;;;;;;;;28.26;50.30;100099.04;89498;1260;95227;-58
2022/09/13 08:22:46;;;;;;;;;;;;;;;28.30;49.56;100100.93;89498;1260;79523;-59
2022/09/13 08:24:53;;;;;;;;;;;;;;;28.19;49.36;100098.09;89526;1260;83133;-58
2022/09/13 08:27:01;;;;;;;;;;;;;;;28.06;48.80;100098.04;89499;1260;98862;-58
2022/09/13 08:29:10;;;;;;;;;;;;;;;27.74;46.87;100093.98;89496;1260;88181;-60
2022/09/13 08:31:21;;;;;;;;;;;;;;;27.55;47.38;100087.73;89506;1260;94442;-59
2022/09/13 08:33:29;;;;;;;;;;;;;;;27.66;47.90;100090.00;89524;1260;79850;-59
2022/09/13 08:35:38;;;;;;;;;;;;;;;27.73;48.13;100089.13;89547;1260;82876;-60
2022/09/13 08:37:51;;;;;;;;;;;;;;;27.73;48.14;100090.64;89533;1260;98643;-60
2022/09/13 08:39:58;;;;;;;;;;;;;;;27.77;48.17;100085.42;89533;1260;87873;-60
2022/09/13 08:42:22;;;;;;;;;;;;;;;28.11;47.28;100088.02;89544;1260;94792;-59
2022/09/13 08:44:33;;;;;;;;;;;;;;;28.33;46.79;100089.02;89575;1260;81128;-60
2022/09/13 08:46:45;;;;;;;;;;;;;;;28.16;46.47;100092.09;89242;1263;83065;-59
2022/09/13 08:48:58;;;;;;;;;;;;;;;27.74;46.55;100084.55;89560;1260;98554;-59
2022/09/13 08:51:20;;;;;;;;;;;;;;;27.84;46.57;100083.57;89576;1260;88727;-60
2022/09/13 08:53:29;;;;;;;;;;;;;;;27.97;45.86;100085.89;89571;1260;95945;-60
2022/09/13 08:55:47;;;;;;;;;;;;;;;28.24;44.74;100079.05;89574;1260;80045;-60
2022/09/13 08:58:04;;;;;;;;;;;;;;;28.32;44.56;100073.50;89532;1260;83038;-59
2022/09/13 09:00:18;;;;;;;;;;;;;;;28.04;43.85;100073.23;89529;1260;98990;-59
2022/09/13 09:02:43;;;;;;;;;;;;;;;27.66;43.80;100068.13;89496;1260;89099;-60
2022/09/13 09:05:04;;;;;;;;;;;;;;;27.09;44.27;100070.56;89503;1260;95635;-60
2022/09/13 09:07:17;;;;;;;;;;;;;;;26.75;43.33;100069.91;89563;1260;80563;-60
2022/09/13 09:09:25;;;;;;;;;;;;;;;25.79;43.83;100069.04;89542;1260;83351;-60
2022/09/13 09:11:36;;;;;;;;;;;;;;;25.50;44.05;100065.42;89488;1260;99049;-60
2022/09/13 09:13:50;;;;;;;;;;;;;;;25.20;44.64;100066.20;89553;1260;89432;-57
2022/09/13 09:16:06;;;;;;;;;;;;;;;25.09;44.73;100063.77;89558;1260;93192;-58
2022/09/13 09:18:22;;;;;;;;;;;;;;;24.92;45.35;100067.39;89527;1260;80940;-57
2022/09/13 09:20:32;;;;;;;;;;;;;;;24.83;45.40;100065.91;89553;1260;82145;-59
2022/09/13 09:22:43;;;;;;;;;;;;;;;24.76;45.47;100068.02;89168;1263;99055;-59
2022/09/13 09:24:55;;;;;;;;;;;;;;;24.91;46.12;100056.02;89548;1260;89304;-59
2022/09/13 09:27:13;;;;;;;;;;;;;;;24.94;45.98;100052.44;89565;1260;95736;-59
2022/09/13 09:29:25;;;;;;;;;;;;;;;25.20;45.83;100048.89;89549;1260;79925;-60
2022/09/13 09:31:41;;;;;;;;;;;;;;;25.43;45.62;100045.58;89602;1260;81721;-59
2022/09/13 09:34:01;;;;;;;;;;;;;;;25.22;45.12;100043.95;89497;1260;98571;-59
2022/09/13 09:36:17;;;;;;;;;;;;;;;25.02;45.44;100041.36;89525;1260;88807;-60
2022/09/13 09:38:36;;;;;;;;;;;;;;;24.82;45.58;100043.05;89540;1260;92608;-59
2022/09/13 09:40:44;;;;;;;;;;;;;;;24.30;45.10;100045.15;89193;1263;77982;-60
2022/09/13 09:42:53;;;;;;;;;;;;;;;24.04;45.39;100043.77;89570;1260;82836;-60
2022/09/13 09:45:05;;;;;;;;;;;;;;;23.89;46.27;100044.45;89499;1260;98068;-59
2022/09/13 09:47:19;;;;;;;;;;;;;;;23.90;46.69;100038.73;89536;1260;88708;-60
2022/09/13 09:51:58;;;;;;;;;;;;;;;23.91;46.99;100033.47;89548;1260;80765;-58
2022/09/13 09:54:09;;;;;;;;;;;;;;;23.93;46.97;100029.86;89535;1260;81566;-59
2022/09/13 09:56:24;;;;;;;;;;;;;;;24.05;46.10;100021.90;89529;1260;98349;-59
2022/09/13 09:58:45;;;;;;;;;;;;;;;23.97;46.24;100022.89;89528;1260;88565;-59
2022/09/13 10:00:55;;;;;;;;;;;;;;;23.90;47.28;100027.90;89523;1260;93877;-59
2022/09/13 10:03:09;;;;;;;;;;;;;;;23.82;47.66;100021.34;89507;1260;79315;-58
2022/09/13 10:05:18;;;;;;;;;;;;;;;23.78;47.64;100019.86;89175;1262;84021;-60
2022/09/13 10:07:35;;;;;;;;;;;;;;;23.56;47.56;100015.68;89553;1260;97532;-58
2022/09/13 10:10:03;;;;;;;;;;;;;;;23.35;47.15;100012.89;89213;1263;88768;-59
2022/09/13 10:12:28;;;;;;;;;;;;;;;23.09;47.43;100009.46;89529;1260;96937;-59
2022/09/13 10:14:57;;;;;;;;;;;;;;;22.87;47.91;100006.84;89483;1260;77719;-60
2022/09/13 10:17:21;;;;;;;;;;;;;;;22.76;48.54;100007.52;89552;1260;82680;-60
2022/09/13 10:19:45;;;;;;;;;;;;;;;22.74;48.80;100004.60;89195;1263;97674;-58
2022/09/13 10:22:10;;;;;;;;;;;;;;;22.79;48.74;100005.52;89561;1260;86664;-60
2022/09/13 10:24:25;;;;;;;;;;;;;;;22.73;49.23;100007.15;89532;1260;95687;-58
2022/09/13 10:26:35;;;;;;;;;;;;;;;22.59;49.07;99998.82;89529;1260;79852;-58
2022/09/13 10:28:52;;;;;;;;;;;;;;;22.39;48.90;100001.42;89538;1260;82431;-59
2022/09/13 10:31:07;;;;;;;;;;;;;;;22.47;49.11;99994.05;89495;1260;98397;-59
2022/09/13 10:33:27;;;;;;;;;;;;;;;22.53;49.59;99990.56;89478;1260;88841;-59
2022/09/13 10:35:38;;;;;;;;;;;;;;;22.38;49.31;99982.81;89472;1260;95620;-60
2022/09/13 10:37:45;;;;;;;;;;;;;;;22.24;49.22;99982.77;89506;1260;79613;-59
2022/09/13 10:39:59;;;;;;;;;;;;;;;22.40;49.18;99981.94;89524;1260;82363;-58
2022/09/13 10:42:12;;;;;;;;;;;;;;;22.47;49.38;99979.61;89511;1260;97728;-59
2022/09/13 10:44:31;;;;;;;;;;;;;;;22.67;49.57;99977.17;89499;1260;88670;-59
2022/09/13 10:46:41;;;;;;;;;;;;;;;22.73;49.85;99977.11;89511;1260;94845;-59
2022/09/13 10:48:54;;;;;;;;;;;;;;;22.89;49.69;99975.04;89516;1260;79259;-59
2022/09/13 10:51:21;;;;;;;;;;;;;;;22.92;49.51;99970.66;89541;1260;82661;-58
2022/09/13 10:53:40;;;;;;;;;;;;;;;22.95;48.84;99969.61;89511;1260;98465;-58
2022/09/13 10:55:53;;;;;;;;;;;;;;;22.93;48.91;99971.67;89539;1260;89124;-58
2022/09/13 10:58:21;;;;;;;;;;;;;;;22.96;48.50;99969.89;89545;1260;94631;-59
2022/09/13 11:00:35;;;;;;;;;;;;;;;22.86;48.22;99972.13;89188;1263;80460;-59
2022/09/13 11:03:07;;;;;;;;;;;;;;;22.80;48.42;99968.18;89549;1260;82528;-59
2022/09/13 11:05:25;;;;;;;;;;;;;;;22.79;48.29;99967.35;89386;1262;98556;-59
2022/09/13 11:07:42;;;;;;;;;;;;;;;22.68;48.65;99962.65;89524;1260;88859;-59
2022/09/13 11:09:56;;;;;;;;;;;;;;;22.66;49.42;99959.90;89415;1260;95030;-58
2022/09/13 11:12:10;;;;;;;;;;;;;;;22.71;49.02;99958.11;89339;1262;79991;-58
2022/09/13 11:14:42;;;;;;;;;;;;;;;22.74;48.65;99956.23;89391;1262;82390;-58
2022/09/13 11:16:59;;;;;;;;;;;;;;;22.59;48.87;99954.21;89324;1262;99112;-58
2022/09/13 11:19:54;;;;;;;;;;;;;;;22.50;49.14;99951.47;89352;1262;88795;-59
2022/09/13 11:22:16;;;;;;;;;;;;;;;22.41;49.10;99949.40;88739;1270;95912;-59
2022/09/13 11:24:39;;;;;;;;;;;;;;;22.40;48.91;99947.04;88739;1270;80883;-59
2022/09/13 11:26:54;;;;;;;;;;;;;;;22.27;49.34;99947.27;88933;1262;81170;-59
2022/09/13 11:29:08;;;;;;;;;;;;;;;22.13;49.77;99941.23;89383;1262;99067;-59